sensor_id;sensor_type;location;lat;lon;timestamp;pressure;altitude;pressure_sealevel;temperature;humidity
36234;BME280;43467;50.890;5.982;2023-04-23T00:01:12;99426.44;;;12.94;83.26
36234;BME280;43467;50.890;5.982;2023-04-23T00:03:40;99427.94;;;12.98;82.68
36234;BME280;43467;50.890;5.982;2023-04-23T00:06:07;99418.56;;;12.92;83.34
36234;BME280;43467;50.890;5.982;2023-04-23T00:08:34;99415.19;;;12.90;82.72
36234;BME280;43467;50.890;5.982;2023-04-23T00:11:00;99416.88;;;12.91;82.37
36234;BME280;43467;50.890;5.982;2023-04-23T00:13:26;99414.88;;;12.95;82.98
36234;BME280;43467;50.890;5.982;2023-04-23T00:15:52;99414.88;;;12.95;82.24
36234;BME280;43467;50.890;5.982;2023-04-23T00:18:17;99418.88;;;13.00;82.49
36234;BME280;43467;50.890;5.982;2023-04-23T00:20:44;99415.50;;;12.98;82.29
36234;BME280;43467;50.890;5.982;2023-04-23T00:23:09;99412.84;;;12.98;82.03
36234;BME280;43467;50.890;5.982;2023-04-23T00:25:35;99408.59;;;12.96;82.14
36234;BME280;43467;50.890;5.982;2023-04-23T00:28:00;99410.28;;;12.97;81.92
36234;BME280;43467;50.890;5.982;2023-04-23T00:30:25;99405.09;;;12.95;81.46
36234;BME280;43467;50.890;5.982;2023-04-23T00:32:51;99410.81;;;12.89;81.49
36234;BME280;43467;50.890;5.982;2023-04-23T00:35:16;99405.59;;;12.88;81.06
36234;BME280;43467;50.890;5.982;2023-04-23T00:37:43;99405.50;;;12.89;81.03
36234;BME280;43467;50.890;5.982;2023-04-23T00:40:09;99408.25;;;12.88;81.13
36234;BME280;43467;50.890;5.982;2023-04-23T00:42:36;99398.69;;;12.85;81.16
36234;BME280;43467;50.890;5.982;2023-04-23T00:45:03;99396.66;;;12.76;80.95
36234;BME280;43467;50.890;5.982;2023-04-23T00:47:29;99387.53;;;12.80;81.21
36234;BME280;43467;50.890;5.982;2023-04-23T00:49:55;99388.59;;;12.78;81.39
36234;BME280;43467;50.890;5.982;2023-04-23T00:52:20;99386.03;;;12.76;80.95
36234;BME280;43467;50.890;5.982;2023-04-23T00:54:46;99385.84;;;12.79;81.10
36234;BME280;43467;50.890;5.982;2023-04-23T00:57:12;99383.28;;;12.78;81.30
36234;BME280;43467;50.890;5.982;2023-04-23T00:59:37;99379.22;;;12.72;80.41
36234;BME280;43467;50.890;5.982;2023-04-23T01:02:04;99374.13;;;12.69;80.55
36234;BME280;43467;50.890;5.982;2023-04-23T01:04:30;99367.63;;;12.61;80.67
36234;BME280;43467;50.890;5.982;2023-04-23T01:06:57;99377.84;;;12.67;80.66
36234;BME280;43467;50.890;5.982;2023-04-23T01:09:23;99375.19;;;12.67;80.76
36234;BME280;43467;50.890;5.982;2023-04-23T01:11:50;99374.03;;;12.71;80.28
36234;BME280;43467;50.890;5.982;2023-04-23T01:14:16;99373.91;;;12.72;80.05
36234;BME280;43467;50.890;5.982;2023-04-23T01:16:42;99377.31;;;12.74;79.61
36234;BME280;43467;50.890;5.982;2023-04-23T01:19:08;99373.81;;;12.74;80.00
36234;BME280;43467;50.890;5.982;2023-04-23T01:21:35;99361.69;;;12.70;78.85
36234;BME280;43467;50.890;5.982;2023-04-23T01:24:02;99360.84;;;12.69;79.10
36234;BME280;43467;50.890;5.982;2023-04-23T01:26:28;99359.78;;;12.72;78.98
36234;BME280;43467;50.890;5.982;2023-04-23T01:28:54;99358.28;;;12.68;78.92
36234;BME280;43467;50.890;5.982;2023-04-23T01:31:19;99355.63;;;12.68;79.10
36234;BME280;43467;50.890;5.982;2023-04-23T01:33:45;99354.47;;;12.72;78.61
36234;BME280;43467;50.890;5.982;2023-04-23T01:36:11;99353.09;;;12.66;78.04
36234;BME280;43467;50.890;5.982;2023-04-23T01:38:37;99351.06;;;12.70;78.38
36234;BME280;43467;50.890;5.982;2023-04-23T01:41:03;99352.03;;;12.69;77.80
36234;BME280;43467;50.890;5.982;2023-04-23T01:43:30;99349.91;;;12.61;77.58
36234;BME280;43467;50.890;5.982;2023-04-23T01:45:59;99355.84;;;12.65;77.87
36234;BME280;43467;50.890;5.982;2023-04-23T01:48:24;99350.53;;;12.65;77.14
36234;BME280;43467;50.890;5.982;2023-04-23T01:50:50;99351.47;;;12.64;77.44
36234;BME280;43467;50.890;5.982;2023-04-23T01:53:16;99352.84;;;12.56;77.47
36234;BME280;43467;50.890;5.982;2023-04-23T01:55:42;99355.97;;;12.63;76.96
36234;BME280;43467;50.890;5.982;2023-04-23T01:58:09;99353.09;;;12.66;76.38
36234;BME280;43467;50.890;5.982;2023-04-23T02:00:35;99346.84;;;12.67;76.12
36234;BME280;43467;50.890;5.982;2023-04-23T02:03:01;99340.13;;;12.62;76.21
36234;BME280;43467;50.890;5.982;2023-04-23T02:05:27;99347.31;;;12.59;75.87
36234;BME280;43467;50.890;5.982;2023-04-23T02:07:53;99338.97;;;12.66;76.10
36234;BME280;43467;50.890;5.982;2023-04-23T02:10:18;99346.59;;;12.57;75.97
36234;BME280;43467;50.890;5.982;2023-04-23T02:12:45;99340.53;;;12.55;75.88
36234;BME280;43467;50.890;5.982;2023-04-23T02:15:12;99341.84;;;12.63;76.39
36234;BME280;43467;50.890;5.982;2023-04-23T02:17:38;99338.53;;;12.59;76.48
36234;BME280;43467;50.890;5.982;2023-04-23T02:20:07;99336.22;;;12.67;76.63
36234;BME280;43467;50.890;5.982;2023-04-23T02:22:35;99336.22;;;12.67;76.60
36234;BME280;43467;50.890;5.982;2023-04-23T02:25:01;99337.88;;;12.68;76.87
36234;BME280;43467;50.890;5.982;2023-04-23T02:27:26;99339.91;;;12.65;77.03
36234;BME280;43467;50.890;5.982;2023-04-23T02:29:51;99338.19;;;12.64;76.89
36234;BME280;43467;50.890;5.982;2023-04-23T02:32:17;99332.69;;;12.67;77.00
36234;BME280;43467;50.890;5.982;2023-04-23T02:34:43;99338.19;;;12.64;77.41
36234;BME280;43467;50.890;5.982;2023-04-23T02:37:08;99334.19;;;12.58;77.50
36234;BME280;43467;50.890;5.982;2023-04-23T02:39:35;99337.78;;;12.57;77.82
36234;BME280;43467;50.890;5.982;2023-04-23T02:42:00;99331.06;;;12.51;78.09
36234;BME280;43467;50.890;5.982;2023-04-23T02:44:26;99330.13;;;12.52;78.42
36234;BME280;43467;50.890;5.982;2023-04-23T02:46:51;99333.31;;;12.57;78.32
36234;BME280;43467;50.890;5.982;2023-04-23T02:49:18;99326.94;;;12.60;78.54
36234;BME280;43467;50.890;5.982;2023-04-23T02:51:45;99334.28;;;12.56;78.04
36234;BME280;43467;50.890;5.982;2023-04-23T02:54:10;99331.41;;;12.59;78.44
36234;BME280;43467;50.890;5.982;2023-04-23T02:56:36;99332.06;;;12.63;78.62
36234;BME280;43467;50.890;5.982;2023-04-23T02:59:01;99339.78;;;12.53;78.30
36234;BME280;43467;50.890;5.982;2023-04-23T03:01:27;99342.56;;;12.65;78.86
36234;BME280;43467;50.890;5.982;2023-04-23T03:03:54;99338.63;;;12.57;78.69
36234;BME280;43467;50.890;5.982;2023-04-23T03:06:20;99348.00;;;12.63;78.80
36234;BME280;43467;50.890;5.982;2023-04-23T03:08:45;99344.38;;;12.64;78.69
36234;BME280;43467;50.890;5.982;2023-04-23T03:11:10;99340.34;;;12.71;78.95
36234;BME280;43467;50.890;5.982;2023-04-23T03:13:36;99343.66;;;12.75;78.78
36234;BME280;43467;50.890;5.982;2023-04-23T03:16:01;99340.34;;;12.71;78.10
36234;BME280;43467;50.890;5.982;2023-04-23T03:18:27;99334.94;;;12.73;79.28
36234;BME280;43467;50.890;5.982;2023-04-23T03:20:52;99337.47;;;12.74;78.70
36234;BME280;43467;50.890;5.982;2023-04-23T03:23:18;99339.59;;;12.69;78.79
36234;BME280;43467;50.890;5.982;2023-04-23T03:25:43;99340.75;;;12.65;78.76
36234;BME280;43467;50.890;5.982;2023-04-23T03:28:08;99337.25;;;12.65;78.85
36234;BME280;43467;50.890;5.982;2023-04-23T03:30:34;99339.19;;;12.63;79.38
36234;BME280;43467;50.890;5.982;2023-04-23T03:33:00;99332.41;;;12.71;79.02
36234;BME280;43467;50.890;5.982;2023-04-23T03:35:28;99331.41;;;12.72;79.24
36234;BME280;43467;50.890;5.982;2023-04-23T03:37:53;99331.22;;;12.75;79.12
36234;BME280;43467;50.890;5.982;2023-04-23T03:40:19;99329.53;;;12.74;78.70
36234;BME280;43467;50.890;5.982;2023-04-23T03:42:45;99330.16;;;12.78;79.05
36234;BME280;43467;50.890;5.982;2023-04-23T03:45:11;99324.28;;;12.73;79.23
36234;BME280;43467;50.890;5.982;2023-04-23T03:47:40;99326.63;;;12.65;79.76
36234;BME280;43467;50.890;5.982;2023-04-23T03:50:06;99327.56;;;12.64;79.48
36234;BME280;43467;50.890;5.982;2023-04-23T03:52:32;99328.88;;;12.71;79.66
36234;BME280;43467;50.890;5.982;2023-04-23T03:54:57;99323.75;;;12.80;79.49
36234;BME280;43467;50.890;5.982;2023-04-23T03:57:23;99323.44;;;12.85;79.00
36234;BME280;43467;50.890;5.982;2023-04-23T03:59:48;99322.09;;;12.79;79.14
36234;BME280;43467;50.890;5.982;2023-04-23T04:02:15;99320.06;;;12.70;79.58
36234;BME280;43467;50.890;5.982;2023-04-23T04:04:40;99318.66;;;12.77;79.22
36234;BME280;43467;50.890;5.982;2023-04-23T04:07:07;99322.09;;;12.79;79.18
36234;BME280;43467;50.890;5.982;2023-04-23T04:09:36;99329.41;;;12.76;79.67
36234;BME280;43467;50.890;5.982;2023-04-23T04:12:01;99331.09;;;12.77;79.65
36234;BME280;43467;50.890;5.982;2023-04-23T04:14:26;99326.53;;;12.79;79.55
36234;BME280;43467;50.890;5.982;2023-04-23T04:16:52;99324.19;;;12.74;79.98
36234;BME280;43467;50.890;5.982;2023-04-23T04:19:19;99324.81;;;12.65;80.41
36234;BME280;43467;50.890;5.982;2023-04-23T04:21:44;99324.63;;;12.68;80.48
36234;BME280;43467;50.890;5.982;2023-04-23T04:24:10;99326.09;;;12.59;80.57
36234;BME280;43467;50.890;5.982;2023-04-23T04:26:35;99327.69;;;12.62;80.65
36234;BME280;43467;50.890;5.982;2023-04-23T04:29:01;99331.94;;;12.65;80.61
36234;BME280;43467;50.890;5.982;2023-04-23T04:31:27;99323.66;;;12.56;81.14
36234;BME280;43467;50.890;5.982;2023-04-23T04:33:53;99331.41;;;12.59;80.92
36234;BME280;43467;50.890;5.982;2023-04-23T04:36:22;99333.09;;;12.61;81.06
36234;BME280;43467;50.890;5.982;2023-04-23T04:38:49;99335.13;;;12.57;81.37
36234;BME280;43467;50.890;5.982;2023-04-23T04:41:16;99333.09;;;12.61;81.33
36234;BME280;43467;50.890;5.982;2023-04-23T04:43:44;99330.13;;;12.65;81.20
36234;BME280;43467;50.890;5.982;2023-04-23T04:46:10;99334.38;;;12.68;81.08
36234;BME280;43467;50.890;5.982;2023-04-23T04:48:38;99340.22;;;12.73;81.00
36234;BME280;43467;50.890;5.982;2023-04-23T04:51:03;99335.56;;;12.76;81.07
36234;BME280;43467;50.890;5.982;2023-04-23T04:53:29;99335.69;;;12.75;80.90
36234;BME280;43467;50.890;5.982;2023-04-23T04:55:55;99333.34;;;12.83;80.78
36234;BME280;43467;50.890;5.982;2023-04-23T04:58:20;99327.81;;;12.86;80.65
36234;BME280;43467;50.890;5.982;2023-04-23T05:00:46;99338.44;;;12.86;80.65
36234;BME280;43467;50.890;5.982;2023-04-23T05:03:19;99332.72;;;12.79;81.03
36234;BME280;43467;50.890;5.982;2023-04-23T05:05:44;99331.00;;;12.78;80.82
36234;BME280;43467;50.890;5.982;2023-04-23T05:08:10;99336.19;;;12.80;81.22
36234;BME280;43467;50.890;5.982;2023-04-23T05:10:36;99340.47;;;12.82;80.96
36234;BME280;43467;50.890;5.982;2023-04-23T05:13:01;99341.31;;;12.83;80.75
36234;BME280;43467;50.890;5.982;2023-04-23T05:15:27;99333.53;;;12.80;80.82
36234;BME280;43467;50.890;5.982;2023-04-23T05:17:52;99335.56;;;12.89;80.83
36234;BME280;43467;50.890;5.982;2023-04-23T05:20:18;99346.31;;;12.87;80.80
36234;BME280;43467;50.890;5.982;2023-04-23T05:22:44;99343.22;;;12.93;80.71
36234;BME280;43467;50.890;5.982;2023-04-23T05:25:10;99341.41;;;12.94;80.72
36234;BME280;43467;50.890;5.982;2023-04-23T05:27:36;99341.19;;;12.97;80.64
36234;BME280;43467;50.890;5.982;2023-04-23T05:30:03;99336.00;;;12.95;80.64
36234;BME280;43467;50.890;5.982;2023-04-23T05:32:29;99343.31;;;12.92;80.57
36234;BME280;43467;50.890;5.982;2023-04-23T05:34:54;99346.81;;;12.92;80.64
36234;BME280;43467;50.890;5.982;2023-04-23T05:37:20;99344.28;;;12.91;80.66
36234;BME280;43467;50.890;5.982;2023-04-23T05:39:46;99339.53;;;12.96;80.73
36234;BME280;43467;50.890;5.982;2023-04-23T05:42:11;99342.69;;;13.01;80.36
36234;BME280;43467;50.890;5.982;2023-04-23T05:44:37;99338.22;;;13.01;80.40
36234;BME280;43467;50.890;5.982;2023-04-23T05:47:03;99341.72;;;13.02;80.35
36234;BME280;43467;50.890;5.982;2023-04-23T05:49:28;99333.84;;;13.00;80.52
36234;BME280;43467;50.890;5.982;2023-04-23T05:51:54;99335.03;;;12.96;80.65
36234;BME280;43467;50.890;5.982;2023-04-23T05:54:20;99335.69;;;13.00;80.77
36234;BME280;43467;50.890;5.982;2023-04-23T05:56:46;99341.41;;;13.07;80.44
36234;BME280;43467;50.890;5.982;2023-04-23T05:59:11;99337.53;;;13.12;80.44
36234;BME280;43467;50.890;5.982;2023-04-23T06:01:38;99339.31;;;13.12;80.87
36234;BME280;43467;50.890;5.982;2023-04-23T06:04:03;99344.31;;;13.16;80.40
36234;BME280;43467;50.890;5.982;2023-04-23T06:06:29;99344.19;;;13.18;80.32
36234;BME280;43467;50.890;5.982;2023-04-23T06:08:55;99343.56;;;13.27;80.58
36234;BME280;43467;50.890;5.982;2023-04-23T06:11:21;99343.34;;;13.17;80.42
36234;BME280;43467;50.890;5.982;2023-04-23T06:13:46;99350.34;;;13.31;80.26
36234;BME280;43467;50.890;5.982;2023-04-23T06:16:11;99344.81;;;13.34;80.43
36234;BME280;43467;50.890;5.982;2023-04-23T06:18:37;99348.22;;;13.36;79.77
36234;BME280;43467;50.890;5.982;2023-04-23T06:21:03;99343.41;;;13.41;80.37
36234;BME280;43467;50.890;5.982;2023-04-23T06:23:30;99338.75;;;13.44;80.19
36234;BME280;43467;50.890;5.982;2023-04-23T06:25:56;99335.44;;;13.41;79.86
36234;BME280;43467;50.890;5.982;2023-04-23T06:28:21;99335.22;;;13.57;79.52
36234;BME280;43467;50.890;5.982;2023-04-23T06:30:47;99332.56;;;13.57;79.39
36234;BME280;43467;50.890;5.982;2023-04-23T06:33:12;99326.19;;;13.46;79.21
36234;BME280;43467;50.890;5.982;2023-04-23T06:35:38;99329.88;;;13.57;79.47
36234;BME280;43467;50.890;5.982;2023-04-23T06:38:03;99324.09;;;13.63;78.95
36234;BME280;43467;50.890;5.982;2023-04-23T06:40:29;99317.78;;;13.53;78.76
36234;BME280;43467;50.890;5.982;2023-04-23T06:42:54;99306.34;;;13.63;78.71
36234;BME280;43467;50.890;5.982;2023-04-23T06:45:20;99313.03;;;13.69;78.47
36234;BME280;43467;50.890;5.982;2023-04-23T06:47:45;99311.63;;;13.76;78.04
36234;BME280;43467;50.890;5.982;2023-04-23T06:50:11;99314.50;;;13.73;78.43
36234;BME280;43467;50.890;5.982;2023-04-23T06:52:36;99308.97;;;13.76;78.45
36234;BME280;43467;50.890;5.982;2023-04-23T06:55:02;99306.25;;;13.88;78.01
36234;BME280;43467;50.890;5.982;2023-04-23T06:57:28;99303.69;;;13.87;77.73
36234;BME280;43467;50.890;5.982;2023-04-23T06:59:53;99307.59;;;13.94;77.53
36234;BME280;43467;50.890;5.982;2023-04-23T07:02:18;99302.50;;;13.91;77.10
36234;BME280;43467;50.890;5.982;2023-04-23T07:04:44;99302.78;;;13.99;76.58
36234;BME280;43467;50.890;5.982;2023-04-23T07:07:10;99296.25;;;14.03;77.31
36234;BME280;43467;50.890;5.982;2023-04-23T07:09:36;99303.91;;;14.08;76.49
36234;BME280;43467;50.890;5.982;2023-04-23T07:12:01;99299.19;;;14.11;76.37
36234;BME280;43467;50.890;5.982;2023-04-23T07:14:27;99291.50;;;14.19;75.94
36234;BME280;43467;50.890;5.982;2023-04-23T07:16:52;99292.84;;;14.25;75.22
36234;BME280;43467;50.890;5.982;2023-04-23T07:19:18;99289.06;;;14.16;75.55
36234;BME280;43467;50.890;5.982;2023-04-23T07:21:44;99291.72;;;14.16;75.54
36234;BME280;43467;50.890;5.982;2023-04-23T07:24:09;99297.22;;;14.26;75.28
36234;BME280;43467;50.890;5.982;2023-04-23T07:26:35;99277.94;;;14.22;74.91
36234;BME280;43467;50.890;5.982;2023-04-23T07:29:02;99289.00;;;14.29;74.63
36234;BME280;43467;50.890;5.982;2023-04-23T07:31:28;99287.91;;;14.31;74.53
36234;BME280;43467;50.890;5.982;2023-04-23T07:33:54;99301.34;;;14.30;74.43
36234;BME280;43467;50.890;5.982;2023-04-23T07:36:20;99281.50;;;14.34;73.85
36234;BME280;43467;50.890;5.982;2023-04-23T07:38:46;99282.88;;;14.39;74.75
36234;BME280;43467;50.890;5.982;2023-04-23T07:41:11;99277.91;;;14.35;74.00
36234;BME280;43467;50.890;5.982;2023-04-23T07:43:37;99269.25;;;14.31;74.00
36234;BME280;43467;50.890;5.982;2023-04-23T07:46:03;99273.22;;;14.50;74.65
36234;BME280;43467;50.890;5.982;2023-04-23T07:48:29;99281.72;;;14.55;72.94
36234;BME280;43467;50.890;5.982;2023-04-23T07:50:54;99280.00;;;14.54;72.66
36234;BME280;43467;50.890;5.982;2023-04-23T07:53:20;99272.53;;;14.59;72.61
36234;BME280;43467;50.890;5.982;2023-04-23T07:55:46;99273.59;;;14.56;72.32
36234;BME280;43467;50.890;5.982;2023-04-23T07:58:11;99270.56;;;14.61;72.13
36234;BME280;43467;50.890;5.982;2023-04-23T08:00:37;99272.13;;;14.63;72.48
36234;BME280;43467;50.890;5.982;2023-04-23T08:03:02;99271.09;;;14.77;72.60
36234;BME280;43467;50.890;5.982;2023-04-23T08:05:27;99270.13;;;14.89;72.00
36234;BME280;43467;50.890;5.982;2023-04-23T08:07:53;99264.78;;;15.00;71.50
36234;BME280;43467;50.890;5.982;2023-04-23T08:10:18;99265.03;;;14.97;71.58
36234;BME280;43467;50.890;5.982;2023-04-23T08:12:44;99260.19;;;15.02;69.96
36234;BME280;43467;50.890;5.982;2023-04-23T08:15:10;99260.19;;;15.02;68.58
36234;BME280;43467;50.890;5.982;2023-04-23T08:17:36;99259.44;;;15.00;67.82
36234;BME280;43467;50.890;5.982;2023-04-23T08:20:02;99252.41;;;14.88;66.55
36234;BME280;43467;50.890;5.982;2023-04-23T08:22:28;99250.50;;;14.90;66.33
36234;BME280;43467;50.890;5.982;2023-04-23T08:24:53;99253.31;;;15.00;66.83
36234;BME280;43467;50.890;5.982;2023-04-23T08:27:19;99251.22;;;15.03;65.96
36234;BME280;43467;50.890;5.982;2023-04-23T08:29:45;99255.69;;;15.14;64.40
36234;BME280;43467;50.890;5.982;2023-04-23T08:32:10;99247.47;;;15.28;64.98
36234;BME280;43467;50.890;5.982;2023-04-23T08:34:36;99250.47;;;15.34;64.09
36234;BME280;43467;50.890;5.982;2023-04-23T08:37:01;99251.53;;;15.43;62.87
36234;BME280;43467;50.890;5.982;2023-04-23T08:39:27;99242.56;;;15.44;63.05
36234;BME280;43467;50.890;5.982;2023-04-23T08:41:54;99243.91;;;15.50;62.98
36234;BME280;43467;50.890;5.982;2023-04-23T08:44:24;99244.97;;;15.58;63.65
36234;BME280;43467;50.890;5.982;2023-04-23T08:46:52;99255.63;;;15.69;63.27
36234;BME280;43467;50.890;5.982;2023-04-23T08:49:18;99244.59;;;15.63;60.18
36234;BME280;43467;50.890;5.982;2023-04-23T08:52:11;99248.00;;;15.65;59.22
36234;BME280;43467;50.890;5.982;2023-04-23T08:54:40;99249.84;;;15.64;59.51
36234;BME280;43467;50.890;5.982;2023-04-23T08:57:09;99259.28;;;15.68;59.46
36234;BME280;43467;50.890;5.982;2023-04-23T08:59:36;99253.25;;;15.87;60.31
36234;BME280;43467;50.890;5.982;2023-04-23T09:02:02;99251.31;;;15.89;60.00
36234;BME280;43467;50.890;5.982;2023-04-23T09:04:34;99249.19;;;16.04;59.77
36234;BME280;43467;50.890;5.982;2023-04-23T09:07:00;99238.69;;;15.91;59.11
36234;BME280;43467;50.890;5.982;2023-04-23T09:09:27;99250.31;;;15.90;58.86
36234;BME280;43467;50.890;5.982;2023-04-23T09:11:54;99245.19;;;15.98;59.88
36234;BME280;43467;50.890;5.982;2023-04-23T09:14:22;99236.16;;;16.10;59.73
36234;BME280;43467;50.890;5.982;2023-04-23T09:16:50;99233.50;;;16.10;58.76
36234;BME280;43467;50.890;5.982;2023-04-23T09:19:16;99240.72;;;16.19;58.60
36234;BME280;43467;50.890;5.982;2023-04-23T09:21:43;99247.91;;;16.19;59.19
36234;BME280;43467;50.890;5.982;2023-04-23T09:24:09;99230.31;;;16.16;58.77
36234;BME280;43467;50.890;5.982;2023-04-23T09:26:48;99234.81;;;16.16;58.83
36234;BME280;43467;50.890;5.982;2023-04-23T09:29:17;99230.78;;;16.21;58.57
36234;BME280;43467;50.890;5.982;2023-04-23T09:31:47;99236.44;;;16.28;58.71
36234;BME280;43467;50.890;5.982;2023-04-23T09:34:23;99235.78;;;16.36;57.71
36234;BME280;43467;50.890;5.982;2023-04-23T09:36:50;99229.59;;;16.35;57.84
36234;BME280;43467;50.890;5.982;2023-04-23T09:39:18;99222.59;;;16.34;57.85
36234;BME280;43467;50.890;5.982;2023-04-23T09:41:45;99216.38;;;16.34;58.23
36234;BME280;43467;50.890;5.982;2023-04-23T09:44:11;99227.97;;;16.44;58.45
36234;BME280;43467;50.890;5.982;2023-04-23T09:46:42;99223.94;;;16.49;57.43
36234;BME280;43467;50.890;5.982;2023-04-23T09:49:09;99219.84;;;16.66;56.82
36234;BME280;43467;50.890;5.982;2023-04-23T09:51:48;99214.91;;;16.71;56.82
36234;BME280;43467;50.890;5.982;2023-04-23T09:54:21;99218.03;;;16.76;56.84
36234;BME280;43467;50.890;5.982;2023-04-23T09:56:52;99215.25;;;16.78;57.79
36234;BME280;43467;50.890;5.982;2023-04-23T09:59:29;99212.00;;;16.74;57.14
36234;BME280;43467;50.890;5.982;2023-04-23T10:01:55;99202.09;;;16.65;57.70
36234;BME280;43467;50.890;5.982;2023-04-23T10:04:22;99209.72;;;16.69;56.89
36234;BME280;43467;50.890;5.982;2023-04-23T10:07:02;99209.31;;;16.74;56.61
36234;BME280;43467;50.890;5.982;2023-04-23T10:09:29;99212.88;;;16.84;56.96
36234;BME280;43467;50.890;5.982;2023-04-23T10:12:00;99198.34;;;16.77;54.59
36234;BME280;43467;50.890;5.982;2023-04-23T10:14:27;99209.81;;;16.89;54.77
36234;BME280;43467;50.890;5.982;2023-04-23T10:17:01;99206.03;;;16.91;54.85
36234;BME280;43467;50.890;5.982;2023-04-23T10:19:28;99209.31;;;16.74;54.78
36234;BME280;43467;50.890;5.982;2023-04-23T10:21:58;99211.72;;;16.77;54.98
36234;BME280;43467;50.890;5.982;2023-04-23T10:24:28;99213.66;;;16.75;55.39
36234;BME280;43467;50.890;5.982;2023-04-23T10:26:59;99209.53;;;16.61;55.56
36234;BME280;43467;50.890;5.982;2023-04-23T10:29:32;99212.34;;;16.60;54.69
36234;BME280;43467;50.890;5.982;2023-04-23T10:32:02;99200.94;;;16.58;55.08
36234;BME280;43467;50.890;5.982;2023-04-23T10:34:29;99209.84;;;16.68;55.61
36234;BME280;43467;50.890;5.982;2023-04-23T10:36:57;99192.09;;;16.67;55.11
36234;BME280;43467;50.890;5.982;2023-04-23T10:39:33;99204.69;;;16.55;54.74
36234;BME280;43467;50.890;5.982;2023-04-23T10:42:00;99192.78;;;16.59;55.23
36234;BME280;43467;50.890;5.982;2023-04-23T10:44:37;99183.31;;;16.55;54.86
36234;BME280;43467;50.890;5.982;2023-04-23T10:47:04;99188.28;;;16.60;55.22
36234;BME280;43467;50.890;5.982;2023-04-23T10:49:31;99186.81;;;16.56;52.97
36234;BME280;43467;50.890;5.982;2023-04-23T10:51:59;99180.16;;;16.61;54.10
36234;BME280;43467;50.890;5.982;2023-04-23T10:54:30;99175.38;;;16.65;52.88
36234;BME280;43467;50.890;5.982;2023-04-23T10:57:00;99180.63;;;16.76;53.26
36234;BME280;43467;50.890;5.982;2023-04-23T10:59:28;99174.91;;;16.90;52.68
36234;BME280;43467;50.890;5.982;2023-04-23T11:01:56;99166.50;;;16.95;51.75
36234;BME280;43467;50.890;5.982;2023-04-23T11:04:28;99174.00;;;17.10;51.88
36234;BME280;43467;50.890;5.982;2023-04-23T11:06:55;99170.19;;;17.03;51.21
36234;BME280;43467;50.890;5.982;2023-04-23T11:12:29;99167.38;;;17.24;50.19
36234;BME280;43467;50.890;5.982;2023-04-23T11:14:55;99160.38;;;17.33;50.59
36234;BME280;43467;50.890;5.982;2023-04-23T11:20:10;99152.66;;;17.39;49.35
36234;BME280;43467;50.890;5.982;2023-04-23T11:25:04;99149.28;;;17.47;49.02
36234;BME280;43467;50.890;5.982;2023-04-23T11:27:30;99134.91;;;17.48;49.00
36234;BME280;43467;50.890;5.982;2023-04-23T11:29:56;99131.38;;;17.38;48.36
36234;BME280;43467;50.890;5.982;2023-04-23T11:32:22;99127.84;;;17.28;48.69
36234;BME280;43467;50.890;5.982;2023-04-23T11:34:48;99132.09;;;17.40;49.29
36234;BME280;43467;50.890;5.982;2023-04-23T11:37:16;99124.34;;;17.46;49.38
36234;BME280;43467;50.890;5.982;2023-04-23T11:39:43;99107.44;;;17.55;49.34
36234;BME280;43467;50.890;5.982;2023-04-23T11:42:12;99109.41;;;17.53;47.62
36234;BME280;43467;50.890;5.982;2023-04-23T11:44:39;99108.03;;;17.59;47.38
36234;BME280;43467;50.890;5.982;2023-04-23T11:47:06;99093.94;;;17.76;48.84
36234;BME280;43467;50.890;5.982;2023-04-23T11:49:32;99092.34;;;17.93;46.93
36234;BME280;43467;50.890;5.982;2023-04-23T11:52:00;99094.63;;;17.88;45.68
36234;BME280;43467;50.890;5.982;2023-04-23T11:54:26;99087.69;;;17.95;46.55
36234;BME280;43467;50.890;5.982;2023-04-23T11:56:53;99080.06;;;18.00;45.07
36234;BME280;43467;50.890;5.982;2023-04-23T11:59:19;99069.66;;;17.97;45.58
36234;BME280;43467;50.890;5.982;2023-04-23T12:01:47;99075.88;;;17.88;45.06
36234;BME280;43467;50.890;5.982;2023-04-23T12:04:14;99068.50;;;17.99;45.27
36234;BME280;43467;50.890;5.982;2023-04-23T12:06:42;99070.75;;;18.04;45.06
36234;BME280;43467;50.890;5.982;2023-04-23T12:09:08;99073.56;;;18.02;42.88
36234;BME280;43467;50.890;5.982;2023-04-23T12:11:35;99059.75;;;18.07;43.34
36234;BME280;43467;50.890;5.982;2023-04-23T12:14:01;99052.09;;;18.22;43.39
36234;BME280;43467;50.890;5.982;2023-04-23T12:19:28;99042.09;;;18.14;43.31
36234;BME280;43467;50.890;5.982;2023-04-23T12:22:02;99045.94;;;18.02;42.82
36234;BME280;43467;50.890;5.982;2023-04-23T12:24:30;99020.97;;;18.11;44.06
36234;BME280;43467;50.890;5.982;2023-04-23T12:27:00;99034.56;;;18.27;43.27
36234;BME280;43467;50.890;5.982;2023-04-23T12:29:29;99019.53;;;18.44;44.67
36234;BME280;43467;50.890;5.982;2023-04-23T12:31:57;99014.41;;;18.50;43.96
36234;BME280;43467;50.890;5.982;2023-04-23T12:34:23;99014.78;;;18.38;43.27
36234;BME280;43467;50.890;5.982;2023-04-23T12:36:54;99013.84;;;18.29;42.46
36234;BME280;43467;50.890;5.982;2023-04-23T12:39:32;99008.75;;;18.26;43.27
36234;BME280;43467;50.890;5.982;2023-04-23T12:42:02;99004.56;;;18.24;42.75
36234;BME280;43467;50.890;5.982;2023-04-23T12:44:33;99001.53;;;18.36;43.30
36234;BME280;43467;50.890;5.982;2023-04-23T12:47:01;98992.94;;;18.33;42.66
36234;BME280;43467;50.890;5.982;2023-04-23T12:49:30;98995.09;;;18.29;41.15
36234;BME280;43467;50.890;5.982;2023-04-23T12:51:57;98990.66;;;18.10;41.21
36234;BME280;43467;50.890;5.982;2023-04-23T12:54:26;98988.50;;;18.14;42.29
36234;BME280;43467;50.890;5.982;2023-04-23T12:56:54;98987.41;;;18.17;42.69
36234;BME280;43467;50.890;5.982;2023-04-23T12:59:19;98977.63;;;18.25;43.65
36234;BME280;43467;50.890;5.982;2023-04-23T13:01:45;98984.91;;;18.33;43.44
36234;BME280;43467;50.890;5.982;2023-04-23T13:04:11;98972.50;;;18.32;43.52
36234;BME280;43467;50.890;5.982;2023-04-23T13:06:36;98968.03;;;18.23;42.62
36234;BME280;43467;50.890;5.982;2023-04-23T13:09:02;98960.16;;;18.21;43.46